HESH/SSH METAR and TAF weather

Enter ICAO airport designator
Station Type Date Time Source
HESH METAR 2019/10/15 08:00 UTC NOAA

HESH 150800Z 17003KT CAVOK 35/16 Q1013 NOSIG


Station Type Date Time Source
HESH Decoded METAR 2019/10/15 08:00 UTC NOAA

Sharm El Sheikhintl, Egypt (HESH) 27-58N 034-23E
Oct 15, 2019 - 04:00 AM EDT / 2019.10.15 0800 UTC
Wind: from the S (170 degrees) at 3 MPH (3 KT):0
Visibility: greater than 7 mile(s):0
Temperature: 95 F (35 C)
Heat index: 95.2 F (35.1 C):1
Dew Point: 60 F (16 C)
Relative Humidity: 32%
Pressure (altimeter): 29.91 in. Hg (1013 hPa)
ob: HESH 150800Z 17003KT CAVOK 35/16 Q1013 NOSIG
cycle: 8

Station Type Date Time Source
HESH TAF 2019/10/15 06:17 UTC NOAA

TAF HESH 150500Z 1506/1612 35012KT 9999 SCT020
TEMPO 1506/1512 6000 RA BKN030
TEMPO 1506/1509 4000 FEW017CB

Example: see airport list